Aviation Digital Data Service (ADDS)

Output produced by METARs form (1739 UTC 27 May 2017)
found at http://www.aviationweather.gov/adds/metars/
 
DRRN 271700Z VRB02KT CAVOK 39/12 Q1010 NOSIG
TAF DRRN 271700Z 2718/2824 26008KT 8000 NSC 
     TEMPO 2809/2812 27018KT 4500 BLDU 
     PROB30 
     TEMPO 2816/2820 TS FEW040CB
       
DRZA 271700Z 04017KT 8000 FEW40 FEW050CB 38/11 Q1012
TAF DRZA 271700Z 2718/2818 28015KT 4000 BLDU TS FEW040 FEW050CB 
     TEMPO 2718/2720 TSRA 
     FM272000 08008KT 6000 NSW NSC
       
DRRM 271700Z 28006KT 9999 FEW050 CB 36/19 Q1012
DRRT 271700Z 34006KT 9999 FEW040 39/16 Q1011
DRZR 271700Z 34004KT 9999 FEW040 39/15 Q1011
TAF DRZR 271700Z 2718/2818 26008KT 8000 NSC 
     TEMPO 2808/2810 24018KT 
     PROB40 
     TEMPO 2815/2818 TS FEW040CB